Current Weather

Buckeye Muni

Buckeye, Arizona (KBXK)

Report from: Wednesday, May 29, 2024 12:15 AM MST
Current time: Wednesday, May 29, 2024 12:35 AM MST

Nearby weather – Weather history – Daily summaries
Weather forecast

Temperature26.0°C (78.8°F)
Dew point-9.0°C (15.8°F)
Winds 7 kts (3.6 m/s, 8.1 mph) North (360°)
Visibility10 mi. (16.1 km)
Clouds Sky clear
Altimeter29.84 in.Hg (1010 mB)
Relative humidity9 %
Density altitude1,423 ft. (434 m)
Remarks Fully automated report
Flight conditions Visual Meteorological Conditions
Raw dataKBXK 290715Z AUTO 36007KT 10SM CLR 26/M09 A2984 RMK A01
An error has occurred. This application may no longer respond until reloaded. Reload 🗙